Time;durP1;ratioP1;P1;durP2;ratioP2;P2;SDS_P1;SDS_P2;PMS_P1;PMS_P2;Temp;Humidity;BMP_temperature;BMP_pressure;BME280_temperature;BME280_humidity;BME280_pressure;Samples;Min_cycle;Max_cycle;Signal;HPM_P1;HPM_P2
2021/10/31 00:02:09;;;;;;;9.60;4.68;;;12.40;99.90;;;;;;5013156;28;20080;-77
2021/10/31 00:04:35;;;;;;;11.15;4.53;;;12.40;99.90;;;;;;5014011;28;20097;-77
2021/10/31 00:07:01;;;;;;;8.65;5.10;;;12.40;99.90;;;;;;5013990;28;20026;-78
2021/10/31 00:09:26;;;;;;;9.98;4.60;;;12.40;99.90;;;;;;5012673;28;20125;-77
2021/10/31 00:11:52;;;;;;;9.70;4.95;;;12.40;99.90;;;;;;5014066;28;20541;-77
2021/10/31 00:14:18;;;;;;;11.70;5.00;;;12.40;99.90;;;;;;5013782;28;20030;-77
2021/10/31 00:16:43;;;;;;;9.18;4.78;;;12.30;99.90;;;;;;5012543;28;20026;-76
2021/10/31 00:19:09;;;;;;;10.77;5.03;;;12.30;99.90;;;;;;5014336;28;20049;-76
2021/10/31 00:21:35;;;;;;;8.07;4.20;;;12.30;99.90;;;;;;5013784;28;20030;-77
2021/10/31 00:24:01;;;;;;;9.15;4.72;;;12.30;99.90;;;;;;5012812;28;20022;-77
2021/10/31 00:26:26;;;;;;;9.20;4.63;;;12.30;99.90;;;;;;5012267;28;20029;-77
2021/10/31 00:28:52;;;;;;;8.13;4.28;;;12.30;99.90;;;;;;5011997;28;20034;-77
2021/10/31 00:31:18;;;;;;;8.70;4.47;;;12.30;99.90;;;;;;5012032;28;20081;-77
2021/10/31 00:33:44;;;;;;;8.13;3.95;;;12.30;99.90;;;;;;5014398;28;20366;-77
2021/10/31 00:36:09;;;;;;;7.47;4.25;;;12.30;99.90;;;;;;5013123;28;20424;-77
2021/10/31 00:38:35;;;;;;;7.78;4.45;;;12.30;99.90;;;;;;5012978;28;20505;-77
2021/10/31 00:41:01;;;;;;;7.65;3.90;;;12.20;99.90;;;;;;5014882;28;20022;-77
2021/10/31 00:43:27;;;;;;;8.57;3.67;;;12.20;99.90;;;;;;5012733;28;20049;-78
2021/10/31 00:45:53;;;;;;;6.80;3.78;;;12.20;99.90;;;;;;5013291;28;20045;-77
2021/10/31 00:48:18;;;;;;;8.15;4.63;;;12.20;99.90;;;;;;5013657;28;20080;-77
2021/10/31 00:50:49;;;;;;;7.70;4.30;;;12.20;99.90;;;;;;5013130;28;20527;-77
2021/10/31 00:53:16;;;;;;;6.90;4.28;;;12.20;99.90;;;;;;5012630;28;20025;-77
2021/10/31 00:55:42;;;;;;;11.07;4.63;;;12.10;99.90;;;;;;5013322;28;20037;-77
2021/10/31 00:58:10;;;;;;;10.13;4.35;;;12.20;99.90;;;;;;5012308;28;20025;-77
2021/10/31 01:00:36;;;;;;;9.45;4.45;;;12.10;99.90;;;;;;5013360;28;20026;-77
2021/10/31 01:03:02;;;;;;;10.05;4.15;;;12.10;99.90;;;;;;5013063;28;20021;-77
2021/10/31 01:05:33;;;;;;;9.32;4.70;;;12.10;99.90;;;;;;5013351;28;20116;-77
2021/10/31 01:08:21;;;;;;;8.35;4.10;;;12.10;99.90;;;;;;5011934;28;20029;-77
2021/10/31 01:11:11;;;;;;;10.70;4.63;;;12.00;99.90;;;;;;5012243;28;20040;-77
2021/10/31 01:13:52;;;;;;;10.27;4.18;;;12.00;99.90;;;;;;5013584;28;20061;-77
2021/10/31 01:16:30;;;;;;;7.97;3.77;;;12.00;99.90;;;;;;5013296;28;20026;-78
2021/10/31 01:19:13;;;;;;;8.02;4.18;;;12.00;99.90;;;;;;5013713;28;20336;-78
2021/10/31 01:21:56;;;;;;;10.05;4.50;;;12.00;99.90;;;;;;5012822;28;20131;-78
2021/10/31 01:25:02;;;;;;;7.28;3.80;;;12.00;99.90;;;;;;5011766;28;20033;-78
2021/10/31 01:27:43;;;;;;;10.88;4.55;;;12.00;99.90;;;;;;4979472;28;20073;-77
2021/10/31 01:30:16;;;;;;;11.73;4.90;;;11.90;99.90;;;;;;5012640;28;20057;-78
2021/10/31 01:32:48;;;;;;;9.90;4.60;;;11.90;99.90;;;;;;5012705;28;20026;-78
2021/10/31 01:35:26;;;;;;;;;;;11.90;99.90;;;;;;5013125;28;20382;-76
2021/10/31 01:38:05;;;;;;;9.43;4.70;;;11.90;99.90;;;;;;5012456;28;20249;-77
2021/10/31 01:40:50;;;;;;;8.65;4.07;;;11.90;99.90;;;;;;5012987;28;20029;-77
2021/10/31 01:43:46;;;;;;;10.77;4.80;;;11.90;99.90;;;;;;5013009;28;20076;-77
2021/10/31 01:46:16;;;;;;;8.70;4.93;;;11.80;99.90;;;;;;5013337;28;20510;-77
2021/10/31 01:49:16;;;;;;;10.38;4.47;;;11.80;99.90;;;;;;5012586;28;20504;-77
2021/10/31 01:51:50;;;;;;;10.20;3.72;;;11.80;99.90;;;;;;5012828;28;20018;-77
2021/10/31 01:54:25;;;;;;;8.73;4.45;;;11.80;99.90;;;;;;5011653;28;20022;-77
2021/10/31 01:56:54;;;;;;;9.95;4.78;;;11.80;99.90;;;;;;5016574;28;20076;-77
2021/10/31 01:59:28;;;;;;;10.50;4.00;;;11.80;99.90;;;;;;5016506;28;20072;-77
2021/10/31 02:01:57;;;;;;;8.93;4.13;;;11.80;99.90;;;;;;5015263;28;20030;-76
2021/10/31 02:04:25;;;;;;;8.80;4.43;;;11.80;99.90;;;;;;5016097;28;20077;-76
2021/10/31 02:06:53;;;;;;;9.27;4.55;;;11.70;99.90;;;;;;5016062;28;20117;-76
2021/10/31 02:09:22;;;;;;;8.18;4.07;;;11.80;99.90;;;;;;5016327;28;20022;-76
2021/10/31 02:11:49;;;;;;;8.77;4.32;;;11.80;99.90;;;;;;5016302;28;20030;-76
2021/10/31 02:14:17;;;;;;;9.48;4.18;;;11.70;99.90;;;;;;5014814;28;20018;-76
2021/10/31 02:16:44;;;;;;;10.60;4.90;;;11.70;99.90;;;;;;5014817;28;20101;-77
2021/10/31 02:19:19;;;;;;;6.82;3.83;;;11.80;99.90;;;;;;5014775;28;20022;-77
2021/10/31 02:21:47;;;;;;;8.45;4.43;;;11.80;99.90;;;;;;5014696;28;20071;-77
2021/10/31 02:24:13;;;;;;;6.35;3.60;;;11.70;99.90;;;;;;5016000;28;20061;-77
2021/10/31 02:26:39;;;;;;;8.48;4.03;;;11.70;99.90;;;;;;5014770;28;20065;-77
2021/10/31 02:29:08;;;;;;;9.02;4.03;;;11.70;99.90;;;;;;5014586;28;20420;-77
2021/10/31 02:31:35;;;;;;;8.07;3.90;;;11.70;99.90;;;;;;5016138;28;20535;-76
2021/10/31 02:34:02;;;;;;;10.15;4.45;;;11.70;99.90;;;;;;5014840;28;20030;-76
2021/10/31 02:36:28;;;;;;;8.43;4.07;;;11.70;99.90;;;;;;5014383;28;20100;-77
2021/10/31 02:38:54;;;;;;;9.77;4.43;;;11.60;99.90;;;;;;5014572;28;20032;-77
2021/10/31 02:41:20;;;;;;;9.82;4.15;;;11.70;99.90;;;;;;5014486;28;20095;-78
2021/10/31 02:43:46;;;;;;;6.88;3.92;;;11.70;99.90;;;;;;5014290;28;20065;-78
2021/10/31 02:46:12;;;;;;;7.75;3.45;;;11.70;99.90;;;;;;5014560;28;20054;-77
2021/10/31 02:48:39;;;;;;;7.47;3.67;;;11.70;99.90;;;;;;5014090;28;20547;-78
2021/10/31 02:51:33;;;;;;;8.45;4.25;;;11.60;99.90;;;;;;5015263;28;20029;-77
2021/10/31 02:54:09;;;;;;;6.50;3.35;;;11.60;99.90;;;;;;5013617;28;20034;-77
2021/10/31 02:56:42;;;;;;;8.68;4.13;;;11.70;99.90;;;;;;5014321;28;20104;-77
2021/10/31 02:59:29;;;;;;;9.20;4.20;;;11.60;99.90;;;;;;5015838;28;20022;-77
2021/10/31 03:01:58;;;;;;;7.38;4.00;;;11.60;99.90;;;;;;5015831;28;20021;-77
2021/10/31 03:04:26;;;;;;;7.75;4.03;;;11.70;99.90;;;;;;5015253;28;20038;-76
2021/10/31 03:06:55;;;;;;;9.40;3.90;;;11.60;99.90;;;;;;5013158;28;20030;-76
2021/10/31 03:09:20;;;;;;;7.82;3.95;;;11.70;99.90;;;;;;5015122;28;20469;-77
2021/10/31 03:11:46;;;;;;;7.20;3.97;;;11.60;99.90;;;;;;5015870;28;20053;-77
2021/10/31 03:14:12;;;;;;;7.75;4.03;;;11.70;99.90;;;;;;5015626;28;20450;-76
2021/10/31 03:16:37;;;;;;;7.55;3.58;;;11.60;99.90;;;;;;5014387;28;20406;-76
2021/10/31 03:19:04;;;;;;;9.50;4.15;;;11.60;99.90;;;;;;5013345;28;20018;-76
2021/10/31 03:21:30;;;;;;;12.90;4.70;;;11.60;99.90;;;;;;5014910;28;20100;-77
2021/10/31 03:23:56;;;;;;;9.43;4.10;;;11.60;99.90;;;;;;5013546;28;20458;-77
2021/10/31 03:26:21;;;;;;;6.78;3.65;;;11.60;99.90;;;;;;5013690;28;20022;-77
2021/10/31 03:28:47;;;;;;;7.47;3.30;;;11.60;99.90;;;;;;5014620;28;20462;-77
2021/10/31 03:31:13;;;;;;;7.93;3.72;;;11.60;99.90;;;;;;5012986;28;20038;-77
2021/10/31 03:33:38;;;;;;;10.13;3.90;;;11.60;99.90;;;;;;5014340;28;20516;-77
2021/10/31 03:36:04;;;;;;;7.85;3.85;;;11.60;99.90;;;;;;5013303;28;20111;-77
2021/10/31 03:38:29;;;;;;;8.23;3.90;;;11.60;99.90;;;;;;5013281;28;20414;-76
2021/10/31 03:40:55;;;;;;;10.90;4.10;;;11.60;99.90;;;;;;5014204;28;20042;-76
2021/10/31 03:43:21;;;;;;;9.07;3.50;;;11.60;99.90;;;;;;5013171;28;20030;-76
2021/10/31 03:45:48;;;;;;;8.77;4.15;;;11.60;99.90;;;;;;5013046;28;20052;-76
2021/10/31 03:48:14;;;;;;;8.80;4.28;;;11.70;99.90;;;;;;5012854;28;20034;-77
2021/10/31 03:50:40;;;;;;;8.32;3.80;;;11.70;99.90;;;;;;5014048;28;20033;-77
2021/10/31 03:53:06;;;;;;;10.93;4.63;;;11.70;99.90;;;;;;5014350;28;20054;-77
2021/10/31 03:55:31;;;;;;;9.70;4.40;;;11.70;99.90;;;;;;5012975;28;20022;-77
2021/10/31 03:57:58;;;;;;;8.18;3.85;;;11.70;99.90;;;;;;5014739;28;20106;-77
2021/10/31 04:00:23;;;;;;;10.18;4.65;;;11.70;99.90;;;;;;5012785;28;20045;-77
2021/10/31 04:02:50;;;;;;;14.02;3.95;;;11.80;99.90;;;;;;5012702;28;20065;-77
2021/10/31 04:05:15;;;;;;;6.55;3.67;;;11.70;99.90;;;;;;5014581;28;20030;-77
2021/10/31 04:07:43;;;;;;;8.00;3.85;;;11.80;99.90;;;;;;5013969;28;20437;-77
2021/10/31 04:10:09;;;;;;;8.45;4.18;;;11.70;99.90;;;;;;5013980;28;20022;-77
2021/10/31 04:12:35;;;;;;;8.93;4.28;;;11.70;99.90;;;;;;5013635;28;20080;-77
2021/10/31 04:15:03;;;;;;;6.22;3.53;;;11.70;99.90;;;;;;5013968;28;20022;-78
2021/10/31 04:17:29;;;;;;;7.93;3.92;;;11.70;99.90;;;;;;5013736;28;20022;-78
2021/10/31 04:19:54;;;;;;;8.90;3.90;;;11.70;99.90;;;;;;5013184;28;20030;-78
2021/10/31 04:22:20;;;;;;;11.23;4.18;;;11.70;99.90;;;;;;5014078;28;20300;-78
2021/10/31 04:24:46;;;;;;;6.60;4.00;;;11.70;99.90;;;;;;5014196;28;20172;-77
2021/10/31 04:27:11;;;;;;;7.32;4.07;;;11.70;99.90;;;;;;5013761;28;20069;-77
2021/10/31 04:29:37;;;;;;;9.20;3.95;;;11.70;99.90;;;;;;5013976;28;20029;-77
2021/10/31 04:32:03;;;;;;;6.75;3.65;;;11.70;99.90;;;;;;5014161;28;20125;-77
2021/10/31 04:34:29;;;;;;;8.75;4.53;;;11.70;99.90;;;;;;5015552;28;20041;-77
2021/10/31 04:36:55;;;;;;;8.18;3.90;;;11.70;99.90;;;;;;5014402;28;20112;-77
2021/10/31 04:39:20;;;;;;;8.40;4.00;;;11.70;99.90;;;;;;5014764;28;20041;-77
2021/10/31 04:41:47;;;;;;;9.73;4.00;;;11.60;99.90;;;;;;5014032;28;20026;-77
2021/10/31 04:44:14;;;;;;;8.30;4.45;;;11.60;99.90;;;;;;5013613;28;20026;-77
2021/10/31 04:46:40;;;;;;;8.32;4.18;;;11.60;99.90;;;;;;5013596;28;20095;-77
2021/10/31 04:49:06;;;;;;;8.10;4.55;;;11.60;99.90;;;;;;5012992;28;20026;-76
2021/10/31 04:51:32;;;;;;;7.60;4.60;;;11.60;99.90;;;;;;5013169;28;20363;-77
2021/10/31 04:53:57;;;;;;;10.18;4.60;;;11.60;99.90;;;;;;5012568;28;20351;-76
2021/10/31 04:56:23;;;;;;;8.18;4.28;;;11.60;99.90;;;;;;5013340;28;20025;-76
2021/10/31 04:58:50;;;;;;;10.13;4.47;;;11.50;99.90;;;;;;5012187;28;20030;-77
2021/10/31 05:01:16;;;;;;;10.43;4.47;;;11.50;99.90;;;;;;5013053;28;20021;-77
2021/10/31 05:03:43;;;;;;;8.10;4.18;;;11.50;99.90;;;;;;5013642;28;20105;-76
2021/10/31 05:06:09;;;;;;;9.68;4.63;;;11.50;99.90;;;;;;5013466;28;20485;-76
2021/10/31 05:08:34;;;;;;;9.73;4.93;;;11.50;99.90;;;;;;5012025;28;20034;-77
2021/10/31 05:11:00;;;;;;;9.02;4.88;;;11.50;99.90;;;;;;5012027;28;20030;-75
2021/10/31 05:13:25;;;;;;;8.50;4.45;;;11.50;99.90;;;;;;5012038;28;20030;-76
2021/10/31 05:15:51;;;;;;;8.40;4.75;;;11.40;99.90;;;;;;5011955;28;20014;-76
2021/10/31 05:18:17;;;;;;;9.52;3.97;;;11.40;99.90;;;;;;5013427;28;20533;-77
2021/10/31 05:20:43;;;;;;;6.95;4.20;;;11.40;99.90;;;;;;5013158;28;20478;-75
2021/10/31 05:23:08;;;;;;;7.75;4.18;;;11.40;99.90;;;;;;5012175;28;20445;-76
2021/10/31 05:25:34;;;;;;;7.40;4.05;;;11.40;99.90;;;;;;5012163;28;20025;-76
2021/10/31 05:28:00;;;;;;;7.50;3.80;;;11.30;99.90;;;;;;5012360;28;20374;-76
2021/10/31 05:30:25;;;;;;;8.27;4.53;;;11.30;99.90;;;;;;5014482;28;20093;-77
2021/10/31 05:32:52;;;;;;;7.15;3.35;;;11.30;99.90;;;;;;5015662;28;20022;-77
2021/10/31 05:35:17;;;;;;;8.68;4.32;;;11.30;99.90;;;;;;5015689;28;20026;-77
2021/10/31 05:37:47;;;;;;;9.05;4.60;;;11.30;99.90;;;;;;5017146;28;20536;-77
2021/10/31 05:40:16;;;;;;;9.65;4.53;;;11.20;99.90;;;;;;5016284;28;20420;-77
2021/10/31 05:42:43;;;;;;;8.23;4.35;;;11.20;99.90;;;;;;5016994;28;20033;-77
2021/10/31 05:45:10;;;;;;;10.20;5.05;;;11.20;99.90;;;;;;5015466;28;20022;-77
2021/10/31 05:47:37;;;;;;;7.53;4.25;;;11.20;99.90;;;;;;5016590;28;20038;-77
2021/10/31 05:50:08;;;;;;;11.90;4.93;;;11.10;99.90;;;;;;5015264;28;20048;-77
2021/10/31 05:52:35;;;;;;;8.25;4.53;;;11.10;99.90;;;;;;5015681;28;20033;-77
2021/10/31 05:55:01;;;;;;;10.70;4.97;;;11.10;99.90;;;;;;5015098;28;20098;-77
2021/10/31 05:57:27;;;;;;;9.40;5.03;;;11.10;99.90;;;;;;5016374;28;20059;-77
2021/10/31 05:59:53;;;;;;;9.45;4.63;;;11.00;99.90;;;;;;5015117;28;20028;-77
2021/10/31 06:02:19;;;;;;;9.18;5.05;;;11.00;99.90;;;;;;5016715;28;20531;-77
2021/10/31 06:04:46;;;;;;;8.18;5.35;;;11.10;99.90;;;;;;5016006;28;20074;-77
2021/10/31 06:07:12;;;;;;;8.82;4.68;;;11.00;99.90;;;;;;5016324;28;20030;-76
2021/10/31 06:09:38;;;;;;;9.45;5.38;;;11.00;99.90;;;;;;5016141;28;20101;-77
2021/10/31 06:12:05;;;;;;;10.85;4.97;;;11.00;99.90;;;;;;5016184;28;20431;-76
2021/10/31 06:14:32;;;;;;;10.50;5.22;;;11.00;99.90;;;;;;5016020;28;20057;-76
2021/10/31 06:16:59;;;;;;;9.85;5.18;;;11.10;99.90;;;;;;5015144;28;20075;-76
2021/10/31 06:19:24;;;;;;;8.98;4.93;;;11.10;99.90;;;;;;5015100;28;20025;-76
2021/10/31 06:21:50;;;;;;;9.30;5.05;;;11.10;99.90;;;;;;5016034;28;20355;-76
2021/10/31 06:24:16;;;;;;;9.68;5.22;;;11.10;99.90;;;;;;5014714;28;20046;-76
2021/10/31 06:26:41;;;;;;;9.60;4.93;;;11.10;99.90;;;;;;5015591;28;20378;-76
2021/10/31 06:29:07;;;;;;;8.57;4.72;;;11.10;99.90;;;;;;5014459;28;20025;-78
2021/10/31 06:31:33;;;;;;;9.80;5.03;;;11.20;99.90;;;;;;5014130;28;20119;-77
2021/10/31 06:33:58;;;;;;;12.15;5.45;;;11.20;99.90;;;;;;5015804;28;20018;-77
2021/10/31 06:36:24;;;;;;;9.60;5.30;;;11.20;99.90;;;;;;5015567;28;20030;-77
2021/10/31 06:38:50;;;;;;;8.88;4.65;;;11.30;99.90;;;;;;5015087;28;20026;-77
2021/10/31 06:41:16;;;;;;;9.95;5.75;;;11.30;99.90;;;;;;5014899;28;20033;-77
2021/10/31 06:43:42;;;;;;;9.23;5.07;;;11.30;99.90;;;;;;5014084;28;20026;-77
2021/10/31 06:46:07;;;;;;;8.95;5.22;;;11.30;99.90;;;;;;5014295;28;20049;-77
2021/10/31 06:48:33;;;;;;;9.25;5.72;;;11.30;99.90;;;;;;5014732;28;20034;-77
2021/10/31 06:50:59;;;;;;;10.80;5.20;;;11.30;99.90;;;;;;5015521;28;20028;-78
2021/10/31 06:53:25;;;;;;;10.40;4.53;;;11.30;99.90;;;;;;5015286;28;20018;-77
2021/10/31 06:55:51;;;;;;;9.13;5.45;;;11.30;99.90;;;;;;5014002;28;20062;-77
2021/10/31 06:58:16;;;;;;;11.40;5.10;;;11.30;99.90;;;;;;5014988;28;20030;-77
2021/10/31 07:00:42;;;;;;;10.20;5.43;;;11.30;99.90;;;;;;5015168;28;20401;-77
2021/10/31 07:03:08;;;;;;;10.80;5.30;;;11.30;99.90;;;;;;5013795;28;20080;-77
2021/10/31 07:05:34;;;;;;;9.75;5.50;;;11.30;99.90;;;;;;5013963;28;20436;-77
2021/10/31 07:08:00;;;;;;;11.60;5.85;;;11.20;99.90;;;;;;5013845;28;20040;-77
2021/10/31 07:10:26;;;;;;;9.98;5.20;;;11.20;99.90;;;;;;5015197;28;20030;-77
2021/10/31 07:12:51;;;;;;;11.90;5.32;;;11.30;99.90;;;;;;5014941;28;20076;-77
2021/10/31 07:15:17;;;;;;;11.30;6.03;;;11.30;99.90;;;;;;5015400;28;20110;-77
2021/10/31 07:17:44;;;;;;;9.25;5.45;;;11.20;99.90;;;;;;5013684;28;20080;-78
2021/10/31 07:20:12;;;;;;;11.32;5.68;;;11.30;99.90;;;;;;5013777;28;20048;-77
2021/10/31 07:22:38;;;;;;;9.65;4.82;;;11.30;99.90;;;;;;5013241;28;20163;-77
2021/10/31 07:25:06;;;;;;;10.15;5.43;;;11.30;99.90;;;;;;5014122;28;20022;-77
2021/10/31 07:27:32;;;;;;;10.90;5.93;;;11.30;99.90;;;;;;5013437;28;20034;-77
2021/10/31 07:29:58;;;;;;;10.45;5.78;;;11.40;99.90;;;;;;5014662;28;20037;-76
2021/10/31 07:32:24;;;;;;;9.23;4.93;;;11.40;99.90;;;;;;5014507;28;20022;-76
2021/10/31 07:34:49;;;;;;;12.43;6.05;;;11.40;99.90;;;;;;5014826;28;20033;-77
2021/10/31 07:37:15;;;;;;;8.50;5.15;;;11.40;99.90;;;;;;5013313;28;20038;-76
2021/10/31 07:39:42;;;;;;;10.80;5.85;;;11.40;99.90;;;;;;5014551;28;20025;-76
2021/10/31 07:42:09;;;;;;;9.02;5.32;;;11.40;99.90;;;;;;5013439;28;20049;-76
2021/10/31 07:44:34;;;;;;;9.25;5.07;;;11.40;99.90;;;;;;5014534;28;20045;-76
2021/10/31 07:47:00;;;;;;;9.43;5.05;;;11.50;99.90;;;;;;5014348;28;20474;-77
2021/10/31 07:49:26;;;;;;;10.80;5.43;;;11.50;99.90;;;;;;5013941;28;20018;-77
2021/10/31 07:51:51;;;;;;;9.85;5.18;;;11.50;99.90;;;;;;5014346;28;20022;-76
2021/10/31 07:54:23;;;;;;;11.77;5.78;;;11.50;99.90;;;;;;5013765;28;20014;-76
2021/10/31 07:56:50;;;;;;;;;;;11.60;99.90;;;;;;5013483;28;20462;-78
2021/10/31 07:59:15;;;;;;;7.10;4.05;;;11.60;99.90;;;;;;5029537;28;19905;-76
2021/10/31 08:01:41;;;;;;;11.02;5.13;;;11.70;99.90;;;;;;5014565;28;20565;-77
2021/10/31 08:04:07;;;;;;;12.93;4.32;;;11.70;99.90;;;;;;5014207;28;20025;-77
2021/10/31 08:06:32;;;;;;;10.88;4.35;;;11.70;99.90;;;;;;5014117;28;20084;-77
2021/10/31 08:08:58;;;;;;;8.95;4.85;;;11.80;99.90;;;;;;5012577;28;20072;-76
2021/10/31 08:11:24;;;;;;;9.25;4.43;;;11.80;99.90;;;;;;5013452;28;20026;-77
2021/10/31 08:13:49;;;;;;;9.85;4.75;;;11.80;99.90;;;;;;5012602;28;20025;-77
2021/10/31 08:16:16;;;;;;;8.43;5.00;;;11.80;99.90;;;;;;5012561;28;20080;-77
2021/10/31 08:18:41;;;;;;;8.55;4.60;;;11.90;99.90;;;;;;5013984;28;20026;-77
2021/10/31 08:21:08;;;;;;;8.80;4.65;;;11.90;99.90;;;;;;5012423;28;20028;-76
2021/10/31 08:23:34;;;;;;;10.02;5.22;;;11.90;99.90;;;;;;5013863;28;20029;-79
2021/10/31 08:26:01;;;;;;;8.20;4.43;;;12.00;99.90;;;;;;5013785;28;20101;-79
2021/10/31 08:28:27;;;;;;;8.75;5.22;;;12.00;99.90;;;;;;5014132;28;20029;-76
2021/10/31 08:30:57;;;;;;;9.02;4.47;;;12.00;99.90;;;;;;5013570;28;20064;-79
2021/10/31 08:33:25;;;;;;;10.90;5.70;;;12.00;99.90;;;;;;5012384;28;20033;-78
2021/10/31 08:35:52;;;;;;;10.30;5.80;;;12.00;99.90;;;;;;5013630;28;20037;-76
2021/10/31 08:38:19;;;;;;;10.57;5.25;;;12.10;99.90;;;;;;5013672;28;20137;-76
2021/10/31 08:40:48;;;;;;;9.88;5.50;;;12.10;99.90;;;;;;5012619;28;20037;-78
2021/10/31 08:43:14;;;;;;;9.95;5.85;;;12.20;99.90;;;;;;5012133;28;20444;-77
2021/10/31 08:45:41;;;;;;;8.98;5.38;;;12.20;99.90;;;;;;5012413;28;20034;-77
2021/10/31 08:48:08;;;;;;;10.52;5.28;;;12.20;99.90;;;;;;5013702;28;20054;-76
2021/10/31 08:50:34;;;;;;;10.93;5.85;;;12.20;99.90;;;;;;5013227;28;20143;-77
2021/10/31 08:53:00;;;;;;;7.80;4.65;;;12.20;99.90;;;;;;5012063;28;20034;-76
2021/10/31 08:55:26;;;;;;;9.18;4.72;;;12.20;99.90;;;;;;5012141;28;20017;-77
2021/10/31 08:57:52;;;;;;;8.40;4.82;;;12.20;99.90;;;;;;5013463;28;20093;-77
2021/10/31 09:00:17;;;;;;;7.78;4.63;;;12.20;99.90;;;;;;5011903;28;20120;-76
2021/10/31 09:02:44;;;;;;;9.05;4.28;;;12.30;99.90;;;;;;5013517;28;20369;-79
2021/10/31 09:05:10;;;;;;;6.28;3.75;;;12.20;99.90;;;;;;5011529;28;20030;-77
2021/10/31 09:07:36;;;;;;;7.07;4.00;;;12.20;99.90;;;;;;5011781;28;20357;-77
2021/10/31 09:10:02;;;;;;;6.35;3.85;;;12.20;99.90;;;;;;5011917;28;20023;-78
2021/10/31 09:12:28;;;;;;;7.03;4.13;;;12.20;99.90;;;;;;5013511;28;20100;-77
2021/10/31 09:14:54;;;;;;;8.07;4.65;;;12.20;99.90;;;;;;5011839;28;20123;-77
2021/10/31 09:17:21;;;;;;;7.53;4.55;;;12.30;99.90;;;;;;5013272;28;20037;-78
2021/10/31 09:19:47;;;;;;;7.68;4.07;;;12.30;99.90;;;;;;5012133;28;20049;-77
2021/10/31 09:22:13;;;;;;;10.73;4.97;;;12.30;99.90;;;;;;5011939;28;20022;-77
2021/10/31 09:24:39;;;;;;;8.43;4.50;;;12.40;99.90;;;;;;5017363;28;20022;-77
2021/10/31 09:27:05;;;;;;;7.47;4.22;;;12.40;99.90;;;;;;5014160;28;20041;-77
2021/10/31 09:29:31;;;;;;;10.02;4.70;;;12.40;99.90;;;;;;5013286;28;20073;-76
2021/10/31 09:31:58;;;;;;;9.15;4.88;;;12.50;99.90;;;;;;5013622;28;20049;-76
2021/10/31 09:34:26;;;;;;;7.50;4.22;;;12.60;99.90;;;;;;5012347;28;20162;-79
2021/10/31 09:36:53;;;;;;;9.65;4.22;;;12.60;99.90;;;;;;5011545;28;20022;-77
2021/10/31 09:39:18;;;;;;;8.30;4.20;;;12.60;99.90;;;;;;5013348;28;20030;-78
2021/10/31 09:41:45;;;;;;;6.97;3.40;;;12.70;99.90;;;;;;5011637;28;20032;-78
2021/10/31 09:44:23;;;;;;;6.32;3.70;;;12.70;99.90;;;;;;5011144;28;20060;-79
2021/10/31 09:46:49;;;;;;;8.70;3.97;;;12.70;99.90;;;;;;5011880;28;20022;-79
2021/10/31 09:49:15;;;;;;;6.82;3.75;;;12.70;99.80;;;;;;5012523;28;20034;-78
2021/10/31 09:51:44;;;;;;;6.85;4.13;;;12.70;99.80;;;;;;5013208;28;20022;-78
2021/10/31 09:54:11;;;;;;;6.05;3.65;;;12.70;99.80;;;;;;5013369;28;20026;-78
2021/10/31 09:56:38;;;;;;;6.80;3.67;;;12.80;99.80;;;;;;5012280;28;20026;-79
2021/10/31 09:59:11;;;;;;;7.03;3.42;;;12.80;99.70;;;;;;5012821;28;20109;-78
2021/10/31 10:01:51;;;;;;;7.88;4.13;;;12.80;99.70;;;;;;5011651;28;20018;-79
2021/10/31 10:04:29;;;;;;;6.35;3.33;;;12.90;99.70;;;;;;5012900;28;20052;-79
2021/10/31 10:06:56;;;;;;;6.53;3.42;;;13.00;99.70;;;;;;5012729;28;20025;-79
2021/10/31 10:09:23;;;;;;;5.00;2.67;;;13.00;99.60;;;;;;5011542;28;20383;-79
2021/10/31 10:11:51;;;;;;;6.55;3.45;;;13.00;99.50;;;;;;5012603;28;20489;-79
2021/10/31 10:14:24;;;;;;;5.43;3.00;;;13.10;99.50;;;;;;5011226;28;20424;-77
2021/10/31 10:16:58;;;;;;;6.38;3.33;;;13.20;99.50;;;;;;5014379;28;20041;-77
2021/10/31 10:19:34;;;;;;;7.53;2.92;;;13.20;99.40;;;;;;5016146;28;20478;-77
2021/10/31 10:21:59;;;;;;;5.95;2.92;;;13.20;99.50;;;;;;5015979;28;20095;-77
2021/10/31 10:24:26;;;;;;;5.70;3.35;;;13.30;99.40;;;;;;5016092;28;20053;-77
2021/10/31 10:26:56;;;;;;;6.30;2.70;;;13.30;99.40;;;;;;5014838;28;20026;-77
2021/10/31 10:29:26;;;;;;;5.97;3.05;;;13.30;99.30;;;;;;5015213;28;20041;-78
2021/10/31 10:31:56;;;;;;;6.20;2.97;;;13.40;99.30;;;;;;5014058;28;20125;-77
2021/10/31 10:34:38;;;;;;;4.93;2.50;;;13.40;99.30;;;;;;5015157;28;20097;-79
2021/10/31 10:37:13;;;;;;;5.10;2.40;;;13.50;99.20;;;;;;5014290;28;20013;-77
2021/10/31 10:39:41;;;;;;;5.55;2.80;;;13.60;99.20;;;;;;5015315;28;20021;-78
2021/10/31 10:42:09;;;;;;;5.13;2.40;;;13.60;99.20;;;;;;5014879;28;20021;-78
2021/10/31 10:44:37;;;;;;;3.38;1.92;;;13.70;99.30;;;;;;5014571;28;20526;-78
2021/10/31 10:47:07;;;;;;;3.85;2.30;;;13.80;99.50;;;;;;5013496;28;20037;-78
2021/10/31 10:49:36;;;;;;;4.57;2.40;;;13.90;99.20;;;;;;5017346;28;20029;-78
2021/10/31 10:52:19;;;;;;;3.55;1.85;;;14.00;99.20;;;;;;5014688;28;20076;-77
2021/10/31 10:54:48;;;;;;;4.65;2.38;;;14.20;99.10;;;;;;5013445;28;20339;-78
2021/10/31 10:57:14;;;;;;;4.53;2.40;;;14.30;99.00;;;;;;5012806;28;20014;-78
2021/10/31 10:59:41;;;;;;;5.75;2.50;;;14.50;98.90;;;;;;5014263;28;20112;-78
2021/10/31 11:02:16;;;;;;;5.53;2.13;;;14.70;98.70;;;;;;5012950;28;20125;-78
2021/10/31 11:04:45;;;;;;;4.68;2.45;;;15.00;98.60;;;;;;5013755;28;20076;-78
2021/10/31 11:07:12;;;;;;;4.15;2.30;;;15.10;98.40;;;;;;5014143;28;20026;-77
2021/10/31 11:09:46;;;;;;;3.00;1.90;;;15.20;98.30;;;;;;5013027;28;20335;-78
2021/10/31 11:12:31;;;;;;;3.35;2.05;;;15.30;98.20;;;;;;5015020;28;20485;-77
2021/10/31 11:15:12;;;;;;;5.40;1.67;;;15.40;98.10;;;;;;5015487;28;20022;-79
2021/10/31 11:17:47;;;;;;;2.72;1.55;;;15.50;98.00;;;;;;5014172;28;20201;-78
2021/10/31 11:20:16;;;;;;;3.03;1.70;;;15.50;97.90;;;;;;5014276;28;20152;-77
2021/10/31 11:22:47;;;;;;;5.05;2.08;;;15.50;97.90;;;;;;5014017;28;20029;-78
2021/10/31 11:25:16;;;;;;;4.28;2.30;;;15.60;97.90;;;;;;5014154;28;20392;-78
2021/10/31 11:27:43;;;;;;;2.20;1.30;;;15.70;97.80;;;;;;5013319;28;20111;-78
2021/10/31 11:30:10;;;;;;;5.30;1.77;;;15.90;97.60;;;;;;5013474;28;20042;-78
2021/10/31 11:32:37;;;;;;;1.85;1.27;;;16.00;97.50;;;;;;5014944;28;20041;-78
2021/10/31 11:35:05;;;;;;;2.88;1.52;;;16.00;97.40;;;;;;5013926;28;20022;-78
2021/10/31 11:37:59;;;;;;;2.05;1.48;;;15.90;97.70;;;;;;5013730;28;20022;-79
2021/10/31 11:40:28;;;;;;;4.65;1.92;;;15.80;97.40;;;;;;4988903;28;20061;-80
2021/10/31 11:42:54;;;;;;;2.78;1.60;;;15.70;97.40;;;;;;5015636;28;20018;-78
2021/10/31 11:45:29;;;;;;;2.55;1.70;;;15.60;97.40;;;;;;5015662;28;20088;-79
2021/10/31 11:48:26;;;;;;;3.78;2.00;;;15.60;97.30;;;;;;5014792;28;20453;-79
2021/10/31 11:51:04;;;;;;;3.70;1.80;;;15.50;97.30;;;;;;5013780;28;20037;-78
2021/10/31 11:53:47;;;;;;;2.88;1.80;;;15.50;97.30;;;;;;5014809;28;20026;-78
2021/10/31 11:56:25;;;;;;;2.97;1.77;;;15.40;97.30;;;;;;5014386;28;20359;-78
2021/10/31 11:58:58;;;;;;;3.65;1.70;;;15.40;97.30;;;;;;5015718;28;20030;-78
2021/10/31 12:01:41;;;;;;;2.92;1.50;;;15.30;97.30;;;;;;5015197;28;20030;-79
2021/10/31 12:04:13;;;;;;;2.55;1.65;;;15.30;97.40;;;;;;5014459;28;20014;-78
2021/10/31 12:06:42;;;;;;;3.78;1.35;;;15.20;97.40;;;;;;5013069;28;20410;-76
2021/10/31 12:09:38;;;;;;;3.15;1.80;;;15.20;97.40;;;;;;5013408;28;20113;-79
2021/10/31 12:12:10;;;;;;;2.78;1.50;;;15.20;97.40;;;;;;5000681;28;20154;-77
2021/10/31 12:14:43;;;;;;;2.65;1.67;;;15.20;97.40;;;;;;5014159;28;20408;-77
2021/10/31 12:17:09;;;;;;;3.35;1.63;;;15.20;97.40;;;;;;5013916;28;20049;-77
2021/10/31 12:19:40;;;;;;;4.85;1.38;;;15.20;97.40;;;;;;5014115;28;20064;-78
2021/10/31 12:22:06;;;;;;;;;;;15.20;97.40;;;;;;5015165;28;20466;-78
2021/10/31 12:24:56;;;;;;;3.30;1.58;;;15.20;97.30;;;;;;5012883;28;19906;-78
2021/10/31 12:27:24;;;;;;;3.47;1.75;;;15.20;97.30;;;;;;5013737;28;20049;-78
2021/10/31 12:30:28;;;;;;;3.17;1.60;;;15.20;97.30;;;;;;5014620;28;20033;-77
2021/10/31 12:33:13;;;;;;;3.03;1.63;;;15.30;97.30;;;;;;5013690;28;20064;-77
2021/10/31 12:35:44;;;;;;;3.25;1.50;;;15.20;97.20;;;;;;5013169;28;20025;-77
2021/10/31 12:38:15;;;;;;;5.85;2.10;;;15.30;97.20;;;;;;5013913;28;20200;-77
2021/10/31 12:40:43;;;;;;;2.60;1.70;;;15.30;97.20;;;;;;5013181;28;20029;-77
2021/10/31 12:43:09;;;;;;;2.80;1.33;;;15.30;97.20;;;;;;5013444;28;20113;-77
2021/10/31 12:45:37;;;;;;;2.63;1.77;;;15.30;97.30;;;;;;5013951;28;20017;-77
2021/10/31 12:48:11;;;;;;;4.53;2.13;;;15.30;97.30;;;;;;5013813;28;20480;-77
2021/10/31 12:50:45;;;;;;;2.85;1.63;;;15.30;97.30;;;;;;5013236;28;20112;-77
2021/10/31 12:53:12;;;;;;;2.55;1.40;;;15.30;97.30;;;;;;5012583;28;20030;-77
2021/10/31 12:55:44;;;;;;;2.38;1.45;;;15.30;97.30;;;;;;5014191;28;20022;-77